Weather at Palmahim Air Base

Public forecast

Using degrees Celsius for public forecast. Weather courtesy of forecast.io.

Closest aviation weather report (METAR) to Palmahim Air Base

Closest report is Ben Gurion International Airport, 12.1 nm (22.4 km) NE. Retrieved 2021/10/22 09:20 UTC (26 minutes ago):

LLBG 220920Z 31011KT 280V350 9999 FEW045 27/15 Q1018 NOSIG

Closest aviation forecast (TAF) to Palmahim Air Base

Closest forecast is Ben Gurion International Airport, 12.1 nm (22.4 km) NE. Retrieved 2021/10/22 06:12 UTC (4 hours ago):

TAF LLBG 220510Z 2206/2306 VRB03KT CAVOK BECMG 2207/2209 33012KT 9999 FEW035 BECMG 2217/2219 36005KT SCT030 BECMG 2223/2301 VRB03KT TX28/2210Z TN19/2303Z